SGR1026 EGKK-KJFK
Flight info
| Callsign | SGR1026 |
|---|---|
| Flight time | N/A |
| Altitude | 32000 |
| Route | NOVMA L620 SAM N19 ADKIK DCT MOPAT DCT NEBIN/M084F330 DCT 5330N02000W 5230N03000W 5130N04000W 5030N05000W DCT BUDAR/N0476F340 DCT ALLEX DCT PLYMM PARCH4 |
| Aircraft | B77W/H-SDE1E2E3FGHIJ2J3J4J5M1RWXY/LB1D1 |
Departure
| Time | N/A |
|---|---|
| Airport | London Gatwick Airport (EGKK) |
Arrival
| Time | 2026-04-30 09:12 |
|---|---|
| Airport | John F. Kennedy International Airport (KJFK) |
| Time | Latitude | Longitude | Altitude | Speed | Heading |
|---|---|---|---|---|---|
| 2026-04-30 04:04 | 53.52481 | -16.94944 | 33144 ft | 499 kts | 272° |
| 2026-04-30 04:04 | 53.52506 | -17.00720 | 33141 ft | 498 kts | 272° |
| 2026-04-30 04:04 | 53.52548 | -17.12280 | 33138 ft | 496 kts | 272° |
| 2026-04-30 04:05 | 53.52580 | -17.23913 | 33142 ft | 496 kts | 272° |
| 2026-04-30 04:05 | 53.52599 | -17.35464 | 33146 ft | 496 kts | 272° |
| 2026-04-30 04:06 | 53.52608 | -17.47032 | 33145 ft | 495 kts | 272° |
| 2026-04-30 04:06 | 53.52605 | -17.58496 | 33152 ft | 493 kts | 272° |
| 2026-04-30 04:07 | 53.52591 | -17.70016 | 33145 ft | 494 kts | 271° |
| 2026-04-30 04:08 | 53.52550 | -17.87334 | 33148 ft | 493 kts | 271° |
| 2026-04-30 04:08 | 53.52508 | -17.98837 | 33156 ft | 493 kts | 271° |
| 2026-04-30 04:09 | 53.52456 | -18.10314 | 33145 ft | 491 kts | 271° |
| 2026-04-30 04:09 | 53.52393 | -18.21759 | 33151 ft | 491 kts | 271° |
| 2026-04-30 04:10 | 53.52320 | -18.33151 | 33149 ft | 487 kts | 271° |
| 2026-04-30 04:10 | 53.52235 | -18.44487 | 33159 ft | 487 kts | 271° |
| 2026-04-30 04:11 | 53.52140 | -18.55851 | 33161 ft | 485 kts | 271° |
| 2026-04-30 04:11 | 53.52034 | -18.67240 | 33161 ft | 485 kts | 270° |
| 2026-04-30 04:12 | 53.51920 | -18.78466 | 33164 ft | 482 kts | 270° |
| 2026-04-30 04:12 | 53.51794 | -18.89646 | 33172 ft | 479 kts | 270° |
| 2026-04-30 04:13 | 53.51659 | -19.00883 | 33169 ft | 478 kts | 269° |
| 2026-04-30 04:13 | 53.51513 | -19.12005 | 33170 ft | 481 kts | 270° |
| 2026-04-30 04:14 | 53.51356 | -19.23224 | 33173 ft | 481 kts | 270° |
| 2026-04-30 04:14 | 53.51188 | -19.34457 | 33171 ft | 479 kts | 270° |
| 2026-04-30 04:15 | 53.51011 | -19.45615 | 33175 ft | 478 kts | 270° |
| 2026-04-30 04:15 | 53.50824 | -19.56751 | 33169 ft | 477 kts | 269° |
| 2026-04-30 04:16 | 53.50624 | -19.68025 | 33173 ft | 477 kts | 268° |
| 2026-04-30 04:16 | 53.50410 | -19.79509 | 33172 ft | 477 kts | 269° |
| 2026-04-30 04:17 | 53.50189 | -19.90758 | 33171 ft | 478 kts | 268° |
| 2026-04-30 04:17 | 53.49868 | -20.01928 | 33176 ft | 475 kts | 265° |
| 2026-04-30 04:18 | 53.49257 | -20.12907 | 33175 ft | 475 kts | 265° |
| 2026-04-30 04:18 | 53.48622 | -20.23940 | 33175 ft | 473 kts | 265° |
| 2026-04-30 04:19 | 53.47975 | -20.34951 | 33171 ft | 474 kts | 265° |
| 2026-04-30 04:19 | 53.47321 | -20.45920 | 33168 ft | 474 kts | 265° |
| 2026-04-30 04:20 | 53.46696 | -20.56219 | 33169 ft | 473 kts | 264° |
| 2026-04-30 04:20 | 53.46021 | -20.67182 | 33172 ft | 473 kts | 264° |
| 2026-04-30 04:21 | 53.45332 | -20.78194 | 33171 ft | 472 kts | 264° |
| 2026-04-30 04:21 | 53.44636 | -20.89154 | 33171 ft | 471 kts | 264° |
| 2026-04-30 04:22 | 53.43930 | -21.00104 | 33177 ft | 471 kts | 264° |
| 2026-04-30 04:22 | 53.43218 | -21.11006 | 33177 ft | 471 kts | 264° |
| 2026-04-30 04:23 | 53.42493 | -21.21929 | 33172 ft | 470 kts | 264° |
| 2026-04-30 04:23 | 53.41763 | -21.32787 | 33171 ft | 469 kts | 264° |
| 2026-04-30 04:24 | 53.41025 | -21.43615 | 33171 ft | 468 kts | 264° |
| 2026-04-30 04:24 | 53.40274 | -21.54484 | 33169 ft | 469 kts | 263° |
| 2026-04-30 04:25 | 53.39519 | -21.65273 | 33170 ft | 467 kts | 263° |
| 2026-04-30 04:25 | 53.38755 | -21.76039 | 33176 ft | 467 kts | 263° |
| 2026-04-30 04:26 | 53.37979 | -21.86845 | 33174 ft | 466 kts | 263° |
| 2026-04-30 04:26 | 53.37195 | -21.97611 | 33173 ft | 464 kts | 262° |
| 2026-04-30 04:27 | 53.36417 | -22.08164 | 33172 ft | 465 kts | 262° |
| 2026-04-30 04:27 | 53.35621 | -22.18830 | 33175 ft | 462 kts | 262° |
| 2026-04-30 04:28 | 53.34810 | -22.29560 | 33173 ft | 464 kts | 262° |
| 2026-04-30 04:28 | 53.33998 | -22.40171 | 33175 ft | 461 kts | 262° |
| 2026-04-30 04:29 | 53.33173 | -22.50847 | 33175 ft | 462 kts | 262° |
| 2026-04-30 04:29 | 53.32342 | -22.61454 | 33172 ft | 459 kts | 262° |
| 2026-04-30 04:30 | 53.31497 | -22.72116 | 33179 ft | 459 kts | 262° |
| 2026-04-30 04:30 | 53.30651 | -22.82673 | 33178 ft | 458 kts | 262° |
| 2026-04-30 04:31 | 53.29802 | -22.93142 | 33179 ft | 456 kts | 261° |
| 2026-04-30 04:31 | 53.28944 | -23.03612 | 33177 ft | 457 kts | 261° |
| 2026-04-30 04:32 | 53.28071 | -23.14141 | 33179 ft | 455 kts | 261° |
| 2026-04-30 04:32 | 53.27196 | -23.24580 | 33179 ft | 455 kts | 262° |
| 2026-04-30 04:33 | 53.26308 | -23.35063 | 33174 ft | 454 kts | 261° |
| 2026-04-30 04:33 | 53.25417 | -23.45471 | 33177 ft | 454 kts | 261° |
| 2026-04-30 04:34 | 53.24514 | -23.55907 | 33183 ft | 452 kts | 261° |
| 2026-04-30 04:34 | 53.23617 | -23.66169 | 33185 ft | 452 kts | 261° |
| 2026-04-30 04:35 | 53.22703 | -23.76516 | 33188 ft | 452 kts | 260° |
| 2026-04-30 04:35 | 53.21773 | -23.86935 | 33197 ft | 448 kts | 261° |
| 2026-04-30 04:36 | 53.20850 | -23.97177 | 33201 ft | 448 kts | 260° |
| 2026-04-30 04:36 | 53.19914 | -24.07463 | 33190 ft | 446 kts | 260° |
| 2026-04-30 04:37 | 53.18969 | -24.17742 | 33197 ft | 447 kts | 260° |
| 2026-04-30 04:37 | 53.18022 | -24.27940 | 33198 ft | 448 kts | 260° |
| 2026-04-30 04:38 | 53.17064 | -24.38160 | 33191 ft | 445 kts | 260° |
| 2026-04-30 04:38 | 53.16112 | -24.48226 | 33198 ft | 447 kts | 261° |
| 2026-04-30 04:39 | 53.15136 | -24.58443 | 33201 ft | 444 kts | 260° |
| 2026-04-30 04:39 | 53.14153 | -24.68633 | 33199 ft | 445 kts | 259° |
| 2026-04-30 04:40 | 53.13170 | -24.78740 | 33199 ft | 444 kts | 260° |
| 2026-04-30 04:40 | 53.12169 | -24.88930 | 33198 ft | 443 kts | 259° |
| 2026-04-30 04:41 | 53.11166 | -24.99058 | 33197 ft | 441 kts | 259° |
| 2026-04-30 04:41 | 53.10160 | -25.09119 | 33211 ft | 444 kts | 260° |
| 2026-04-30 04:42 | 53.09159 | -25.19032 | 33215 ft | 442 kts | 260° |
| 2026-04-30 04:42 | 53.08129 | -25.29154 | 33208 ft | 443 kts | 260° |
| 2026-04-30 04:43 | 53.07094 | -25.39238 | 33212 ft | 444 kts | 260° |
| 2026-04-30 04:43 | 53.06039 | -25.49430 | 33212 ft | 443 kts | 259° |
| 2026-04-30 04:44 | 53.04986 | -25.59511 | 33206 ft | 445 kts | 260° |
| 2026-04-30 04:44 | 53.03908 | -25.69740 | 33217 ft | 446 kts | 259° |
| 2026-04-30 04:45 | 53.02827 | -25.79915 | 33209 ft | 446 kts | 259° |
| 2026-04-30 04:45 | 53.01737 | -25.90080 | 33217 ft | 448 kts | 259° |
| 2026-04-30 04:46 | 53.00634 | -26.00288 | 33211 ft | 447 kts | 259° |
| 2026-04-30 04:46 | 52.99520 | -26.10509 | 33218 ft | 448 kts | 259° |
| 2026-04-30 04:47 | 52.98401 | -26.20691 | 33223 ft | 447 kts | 259° |
| 2026-04-30 04:47 | 52.97272 | -26.30880 | 33223 ft | 450 kts | 259° |
| 2026-04-30 04:48 | 52.96133 | -26.41072 | 33228 ft | 450 kts | 260° |
| 2026-04-30 04:48 | 52.94982 | -26.51284 | 33225 ft | 451 kts | 260° |
| 2026-04-30 04:49 | 52.93817 | -26.61546 | 33230 ft | 453 kts | 260° |
| 2026-04-30 04:49 | 52.92649 | -26.71749 | 33241 ft | 454 kts | 259° |
| 2026-04-30 04:50 | 52.91465 | -26.82003 | 33242 ft | 453 kts | 259° |
| 2026-04-30 04:50 | 52.90270 | -26.92279 | 33251 ft | 455 kts | 259° |
| 2026-04-30 04:51 | 52.89066 | -27.02547 | 33253 ft | 455 kts | 259° |
| 2026-04-30 04:51 | 52.87853 | -27.12813 | 33260 ft | 457 kts | 259° |
| 2026-04-30 04:52 | 52.86618 | -27.23177 | 33260 ft | 457 kts | 259° |
| 2026-04-30 04:52 | 52.85382 | -27.33473 | 33258 ft | 459 kts | 260° |
| 2026-04-30 04:53 | 52.84123 | -27.43873 | 33268 ft | 458 kts | 260° |
| 2026-04-30 04:53 | 52.82864 | -27.54200 | 33257 ft | 459 kts | 260° |
| 2026-04-30 04:54 | 52.81595 | -27.64527 | 33263 ft | 459 kts | 260° |
| 2026-04-30 04:54 | 52.80314 | -27.74870 | 33271 ft | 460 kts | 259° |
| 2026-04-30 04:55 | 52.79026 | -27.85191 | 33270 ft | 460 kts | 259° |
| 2026-04-30 04:55 | 52.77726 | -27.95534 | 33270 ft | 462 kts | 259° |
| 2026-04-30 04:56 | 52.76406 | -28.05959 | 33266 ft | 461 kts | 259° |
| 2026-04-30 04:56 | 52.75080 | -28.16353 | 33269 ft | 465 kts | 259° |
| 2026-04-30 04:57 | 52.73737 | -28.26800 | 33264 ft | 464 kts | 259° |
| 2026-04-30 04:57 | 52.72392 | -28.37178 | 33262 ft | 464 kts | 259° |
| 2026-04-30 04:58 | 52.71031 | -28.47615 | 33272 ft | 467 kts | 260° |
| 2026-04-30 04:58 | 52.69658 | -28.58056 | 33280 ft | 470 kts | 260° |
| 2026-04-30 04:59 | 52.68274 | -28.68508 | 33280 ft | 468 kts | 259° |
| 2026-04-30 04:59 | 52.66868 | -28.79055 | 33282 ft | 469 kts | 259° |
| 2026-04-30 05:00 | 52.65459 | -28.89542 | 33279 ft | 472 kts | 259° |
| 2026-04-30 05:00 | 52.64034 | -29.00076 | 33284 ft | 470 kts | 259° |
| 2026-04-30 05:01 | 52.62597 | -29.10619 | 33287 ft | 474 kts | 259° |
| 2026-04-30 05:01 | 52.61140 | -29.21233 | 33291 ft | 473 kts | 259° |
| 2026-04-30 05:02 | 52.59683 | -29.31769 | 33295 ft | 476 kts | 259° |
| 2026-04-30 05:02 | 52.58190 | -29.42490 | 33303 ft | 476 kts | 259° |
| 2026-04-30 05:03 | 52.56702 | -29.53109 | 33302 ft | 478 kts | 259° |
| 2026-04-30 05:03 | 52.55182 | -29.63864 | 33301 ft | 477 kts | 259° |
| 2026-04-30 05:04 | 52.53659 | -29.74574 | 33310 ft | 480 kts | 258° |
| 2026-04-30 05:04 | 52.52121 | -29.85311 | 33306 ft | 480 kts | 258° |
| 2026-04-30 05:05 | 52.50577 | -29.96016 | 33313 ft | 482 kts | 258° |
| 2026-04-30 05:05 | 52.49299 | -30.06752 | 33300 ft | 479 kts | 267° |
| 2026-04-30 05:06 | 52.48541 | -30.23166 | 33318 ft | 481 kts | 268° |
| 2026-04-30 05:06 | 52.47967 | -30.34092 | 33310 ft | 481 kts | 267° |
| 2026-04-30 05:07 | 52.47351 | -30.45038 | 33311 ft | 483 kts | 267° |
| 2026-04-30 05:07 | 52.46709 | -30.55964 | 33321 ft | 474 kts | 267° |
| 2026-04-30 05:08 | 52.46064 | -30.66628 | 33324 ft | 471 kts | 266° |
| 2026-04-30 05:08 | 52.45404 | -30.77338 | 33322 ft | 474 kts | 266° |
| 2026-04-30 05:09 | 52.44729 | -30.88071 | 33334 ft | 474 kts | 266° |
| 2026-04-30 05:09 | 52.44043 | -30.98798 | 33327 ft | 475 kts | 266° |
| 2026-04-30 05:10 | 52.43339 | -31.09641 | 33325 ft | 477 kts | 266° |
| 2026-04-30 05:10 | 52.42633 | -31.20355 | 33331 ft | 477 kts | 267° |
| 2026-04-30 05:11 | 52.41908 | -31.31208 | 33330 ft | 478 kts | 267° |
| 2026-04-30 05:11 | 52.41174 | -31.42037 | 33327 ft | 477 kts | 266° |
| 2026-04-30 05:12 | 52.40427 | -31.52919 | 33332 ft | 478 kts | 267° |
| 2026-04-30 05:12 | 52.39675 | -31.63709 | 33334 ft | 478 kts | 267° |
| 2026-04-30 05:13 | 52.38914 | -31.74483 | 33333 ft | 478 kts | 266° |
| 2026-04-30 05:13 | 52.38140 | -31.85302 | 33336 ft | 479 kts | 266° |
| 2026-04-30 05:14 | 52.37352 | -31.96188 | 33338 ft | 481 kts | 266° |
| 2026-04-30 05:14 | 52.36554 | -32.07043 | 33340 ft | 482 kts | 266° |
| 2026-04-30 05:15 | 52.35741 | -32.17976 | 33341 ft | 481 kts | 266° |
| 2026-04-30 05:15 | 52.34928 | -32.28771 | 33342 ft | 481 kts | 266° |
| 2026-04-30 05:16 | 52.34095 | -32.39693 | 33351 ft | 483 kts | 266° |
| 2026-04-30 05:16 | 52.33260 | -32.50516 | 33352 ft | 482 kts | 266° |
| 2026-04-30 05:17 | 52.32410 | -32.61391 | 33353 ft | 483 kts | 266° |
| 2026-04-30 05:17 | 52.31545 | -32.72322 | 33353 ft | 483 kts | 266° |
| 2026-04-30 05:18 | 52.30675 | -32.83199 | 33356 ft | 485 kts | 265° |
| 2026-04-30 05:18 | 52.29785 | -32.94189 | 33359 ft | 491 kts | 266° |
| 2026-04-30 05:19 | 52.28872 | -33.05341 | 33357 ft | 500 kts | 265° |
| 2026-04-30 05:19 | 52.27937 | -33.16610 | 33359 ft | 500 kts | 265° |
| 2026-04-30 05:20 | 52.26997 | -33.27796 | 33361 ft | 498 kts | 266° |
| 2026-04-30 05:20 | 52.26040 | -33.39059 | 33358 ft | 501 kts | 266° |
| 2026-04-30 05:21 | 52.25075 | -33.50293 | 33365 ft | 501 kts | 266° |
| 2026-04-30 05:21 | 52.24099 | -33.61517 | 33371 ft | 501 kts | 266° |
| 2026-04-30 05:22 | 52.23109 | -33.72784 | 33371 ft | 503 kts | 265° |
| 2026-04-30 05:22 | 52.22101 | -33.84125 | 33372 ft | 503 kts | 265° |
| 2026-04-30 05:23 | 52.21082 | -33.95466 | 33379 ft | 505 kts | 265° |
| 2026-04-30 05:23 | 52.20056 | -34.06747 | 33384 ft | 505 kts | 265° |
| 2026-04-30 05:24 | 52.19020 | -34.18035 | 33383 ft | 505 kts | 265° |
| 2026-04-30 05:24 | 52.17971 | -34.29329 | 33384 ft | 504 kts | 265° |
| 2026-04-30 05:25 | 52.16911 | -34.40616 | 33385 ft | 506 kts | 265° |
| 2026-04-30 05:25 | 52.15836 | -34.51949 | 33385 ft | 507 kts | 265° |
| 2026-04-30 05:26 | 52.14751 | -34.63271 | 33387 ft | 508 kts | 265° |
| 2026-04-30 05:26 | 52.13648 | -34.74656 | 33382 ft | 509 kts | 265° |
| 2026-04-30 05:27 | 52.12531 | -34.86057 | 33382 ft | 507 kts | 264° |
| 2026-04-30 05:27 | 52.11407 | -34.97427 | 33385 ft | 508 kts | 264° |
| 2026-04-30 05:28 | 52.10270 | -35.08803 | 33384 ft | 507 kts | 264° |
| 2026-04-30 05:28 | 52.09125 | -35.20144 | 33385 ft | 509 kts | 264° |
| 2026-04-30 05:29 | 52.07968 | -35.31493 | 33389 ft | 509 kts | 265° |
| 2026-04-30 05:29 | 52.06801 | -35.42831 | 33391 ft | 510 kts | 264° |
| 2026-04-30 05:30 | 52.05621 | -35.54180 | 33396 ft | 510 kts | 264° |
| 2026-04-30 05:30 | 52.04426 | -35.65561 | 33393 ft | 509 kts | 264° |
| 2026-04-30 05:31 | 52.03225 | -35.76894 | 33384 ft | 512 kts | 264° |
| 2026-04-30 05:31 | 52.02001 | -35.88331 | 33384 ft | 512 kts | 263° |
| 2026-04-30 05:32 | 52.00768 | -35.99741 | 33383 ft | 513 kts | 263° |
| 2026-04-30 05:32 | 51.99527 | -36.11111 | 33384 ft | 511 kts | 264° |
| 2026-04-30 05:33 | 51.98278 | -36.22461 | 33384 ft | 512 kts | 263° |
| 2026-04-30 05:33 | 51.97015 | -36.33826 | 33378 ft | 513 kts | 264° |
| 2026-04-30 05:34 | 51.95746 | -36.45145 | 33383 ft | 512 kts | 263° |
| 2026-04-30 05:34 | 51.94461 | -36.56490 | 33383 ft | 511 kts | 263° |
| 2026-04-30 05:35 | 51.93167 | -36.67822 | 33383 ft | 513 kts | 263° |
| 2026-04-30 05:35 | 51.91864 | -36.79137 | 33387 ft | 513 kts | 263° |
| 2026-04-30 05:36 | 51.90540 | -36.90524 | 33395 ft | 513 kts | 262° |
| 2026-04-30 05:36 | 51.89211 | -37.01851 | 33393 ft | 514 kts | 263° |
| 2026-04-30 05:37 | 51.87870 | -37.13182 | 33396 ft | 512 kts | 263° |
| 2026-04-30 05:37 | 51.86485 | -37.24786 | 33392 ft | 512 kts | 263° |
| 2026-04-30 05:38 | 51.85107 | -37.36229 | 33397 ft | 513 kts | 263° |
| 2026-04-30 05:38 | 51.83724 | -37.47620 | 33398 ft | 512 kts | 263° |
| 2026-04-30 05:39 | 51.82342 | -37.58904 | 33400 ft | 513 kts | 262° |
| 2026-04-30 05:39 | 51.80945 | -37.70216 | 33398 ft | 513 kts | 262° |
| 2026-04-30 05:40 | 51.79530 | -37.81574 | 33396 ft | 513 kts | 262° |
| 2026-04-30 05:40 | 51.78109 | -37.92883 | 33399 ft | 512 kts | 262° |
| 2026-04-30 05:41 | 51.76686 | -38.04124 | 33397 ft | 512 kts | 262° |
| 2026-04-30 05:41 | 51.75248 | -38.15386 | 33398 ft | 512 kts | 262° |
| 2026-04-30 05:42 | 51.73792 | -38.26703 | 33397 ft | 514 kts | 262° |
| 2026-04-30 05:42 | 51.72325 | -38.38004 | 33402 ft | 514 kts | 261° |
| 2026-04-30 05:43 | 51.70854 | -38.49247 | 33403 ft | 513 kts | 262° |
| 2026-04-30 05:43 | 51.69371 | -38.60500 | 33402 ft | 513 kts | 261° |
| 2026-04-30 05:44 | 51.67870 | -38.71799 | 33396 ft | 516 kts | 261° |
| 2026-04-30 05:44 | 51.66353 | -38.83121 | 33392 ft | 514 kts | 260° |
| 2026-04-30 05:45 | 51.64833 | -38.94380 | 33384 ft | 514 kts | 260° |
| 2026-04-30 05:45 | 51.63298 | -39.05662 | 33380 ft | 515 kts | 260° |
| 2026-04-30 05:46 | 51.61756 | -39.16916 | 33380 ft | 515 kts | 260° |
| 2026-04-30 05:46 | 51.60203 | -39.28155 | 33380 ft | 515 kts | 260° |
| 2026-04-30 05:47 | 51.58649 | -39.39325 | 33383 ft | 515 kts | 260° |
| 2026-04-30 05:47 | 51.57071 | -39.50573 | 33384 ft | 516 kts | 260° |
| 2026-04-30 05:48 | 51.55494 | -39.61744 | 33386 ft | 516 kts | 260° |
| 2026-04-30 05:48 | 51.53891 | -39.73006 | 33389 ft | 518 kts | 259° |
| 2026-04-30 05:49 | 51.52284 | -39.84206 | 33390 ft | 516 kts | 259° |
| 2026-04-30 05:49 | 51.50655 | -39.95485 | 33389 ft | 518 kts | 259° |
| 2026-04-30 05:50 | 51.49267 | -40.06752 | 33385 ft | 513 kts | 268° |
| 2026-04-30 05:50 | 51.48742 | -40.18347 | 33390 ft | 514 kts | 269° |
| 2026-04-30 05:51 | 51.48180 | -40.29808 | 33390 ft | 513 kts | 268° |
| 2026-04-30 05:51 | 51.47567 | -40.41156 | 33393 ft | 513 kts | 268° |
| 2026-04-30 05:52 | 51.46915 | -40.52557 | 33398 ft | 514 kts | 268° |
| 2026-04-30 05:52 | 51.46243 | -40.63884 | 33398 ft | 512 kts | 267° |
| 2026-04-30 05:53 | 51.45547 | -40.75292 | 33392 ft | 512 kts | 266° |
| 2026-04-30 05:53 | 51.44846 | -40.86552 | 33393 ft | 512 kts | 266° |
| 2026-04-30 05:54 | 51.44125 | -40.97903 | 33401 ft | 513 kts | 266° |
| 2026-04-30 05:54 | 51.43390 | -41.09281 | 33398 ft | 512 kts | 266° |
| 2026-04-30 05:55 | 51.42651 | -41.20545 | 33402 ft | 512 kts | 266° |
| 2026-04-30 05:55 | 51.41896 | -41.31863 | 33400 ft | 511 kts | 266° |
| 2026-04-30 05:56 | 51.41131 | -41.43174 | 33400 ft | 511 kts | 266° |
| 2026-04-30 05:56 | 51.40356 | -41.54463 | 33399 ft | 510 kts | 266° |
| 2026-04-30 05:57 | 51.39586 | -41.65531 | 33400 ft | 511 kts | 265° |
| 2026-04-30 05:57 | 51.38781 | -41.76934 | 33397 ft | 511 kts | 265° |
| 2026-04-30 05:58 | 51.37962 | -41.88364 | 33391 ft | 510 kts | 265° |
| 2026-04-30 05:58 | 51.37130 | -41.99838 | 33395 ft | 511 kts | 265° |
| 2026-04-30 05:59 | 51.36301 | -42.11092 | 33391 ft | 509 kts | 265° |
| 2026-04-30 05:59 | 51.35450 | -42.22512 | 33393 ft | 510 kts | 265° |
| 2026-04-30 06:00 | 51.34613 | -42.33578 | 33395 ft | 510 kts | 265° |
| 2026-04-30 06:00 | 51.33736 | -42.45041 | 33395 ft | 509 kts | 265° |
| 2026-04-30 06:01 | 51.32870 | -42.56195 | 33397 ft | 508 kts | 265° |
| 2026-04-30 06:01 | 51.31991 | -42.67394 | 33394 ft | 508 kts | 264° |
| 2026-04-30 06:02 | 51.31101 | -42.78593 | 33395 ft | 508 kts | 264° |
| 2026-04-30 06:02 | 51.30199 | -42.89794 | 33396 ft | 506 kts | 264° |
| 2026-04-30 06:03 | 51.29296 | -43.00876 | 33395 ft | 505 kts | 264° |
| 2026-04-30 06:03 | 51.28373 | -43.12060 | 33396 ft | 506 kts | 264° |
| 2026-04-30 06:04 | 51.27446 | -43.23181 | 33396 ft | 505 kts | 263° |
| 2026-04-30 06:05 | 51.26032 | -43.39875 | 33396 ft | 505 kts | 263° |
| 2026-04-30 06:05 | 51.25076 | -43.51002 | 33396 ft | 505 kts | 263° |
| 2026-04-30 06:06 | 51.24143 | -43.61747 | 33398 ft | 505 kts | 263° |
| 2026-04-30 06:06 | 51.23168 | -43.72845 | 33397 ft | 505 kts | 263° |
| 2026-04-30 06:07 | 51.22185 | -43.83913 | 33393 ft | 505 kts | 263° |
| 2026-04-30 06:07 | 51.21189 | -43.95003 | 33397 ft | 505 kts | 263° |
| 2026-04-30 06:08 | 51.20181 | -44.06104 | 33395 ft | 504 kts | 263° |
| 2026-04-30 06:08 | 51.19169 | -44.17129 | 33394 ft | 503 kts | 263° |
| 2026-04-30 06:09 | 51.18145 | -44.28170 | 33392 ft | 502 kts | 263° |
| 2026-04-30 06:09 | 51.17114 | -44.39173 | 33392 ft | 501 kts | 263° |
| 2026-04-30 06:10 | 51.16074 | -44.50149 | 33384 ft | 502 kts | 263° |
| 2026-04-30 06:10 | 51.15023 | -44.61131 | 33382 ft | 501 kts | 262° |
| 2026-04-30 06:11 | 51.13968 | -44.72044 | 33392 ft | 501 kts | 262° |
| 2026-04-30 06:11 | 51.12897 | -44.83019 | 33401 ft | 501 kts | 262° |
| 2026-04-30 06:12 | 51.11813 | -44.94006 | 33401 ft | 499 kts | 262° |
| 2026-04-30 06:12 | 51.10728 | -45.04895 | 33399 ft | 498 kts | 262° |
| 2026-04-30 06:13 | 51.09629 | -45.15828 | 33398 ft | 499 kts | 262° |
| 2026-04-30 06:13 | 51.08528 | -45.26669 | 33398 ft | 500 kts | 262° |
| 2026-04-30 06:14 | 51.07403 | -45.37636 | 33396 ft | 499 kts | 261° |
| 2026-04-30 06:14 | 51.06302 | -45.48277 | 33396 ft | 498 kts | 262° |
| 2026-04-30 06:15 | 51.05162 | -45.59179 | 33399 ft | 499 kts | 262° |
| 2026-04-30 06:15 | 51.04008 | -45.70128 | 33397 ft | 499 kts | 261° |
| 2026-04-30 06:16 | 51.02834 | -45.81157 | 33395 ft | 499 kts | 261° |
| 2026-04-30 06:16 | 51.01659 | -45.92087 | 33397 ft | 498 kts | 260° |
| 2026-04-30 06:17 | 51.00481 | -46.02954 | 33402 ft | 499 kts | 260° |
| 2026-04-30 06:17 | 50.99306 | -46.13695 | 33410 ft | 498 kts | 260° |
| 2026-04-30 06:18 | 50.98110 | -46.24527 | 33402 ft | 499 kts | 260° |
| 2026-04-30 06:18 | 50.96903 | -46.35364 | 33390 ft | 497 kts | 260° |
| 2026-04-30 06:19 | 50.95690 | -46.46165 | 33387 ft | 499 kts | 260° |
| 2026-04-30 06:19 | 50.94465 | -46.56975 | 33382 ft | 499 kts | 260° |
| 2026-04-30 06:20 | 50.93229 | -46.67781 | 33381 ft | 499 kts | 259° |
| 2026-04-30 06:20 | 50.91988 | -46.78543 | 33381 ft | 499 kts | 259° |
| 2026-04-30 06:21 | 50.90732 | -46.89344 | 33380 ft | 497 kts | 259° |
| 2026-04-30 06:21 | 50.89453 | -47.00257 | 33381 ft | 497 kts | 259° |
| 2026-04-30 06:22 | 50.88160 | -47.11189 | 33381 ft | 496 kts | 259° |
| 2026-04-30 06:22 | 50.86865 | -47.22045 | 33384 ft | 496 kts | 259° |
| 2026-04-30 06:23 | 50.85566 | -47.32849 | 33386 ft | 497 kts | 259° |
| 2026-04-30 06:23 | 50.84267 | -47.43555 | 33390 ft | 496 kts | 259° |
| 2026-04-30 06:24 | 50.82970 | -47.54170 | 33395 ft | 495 kts | 259° |
| 2026-04-30 06:24 | 50.81656 | -47.64840 | 33393 ft | 494 kts | 258° |
| 2026-04-30 06:25 | 50.80323 | -47.75571 | 33387 ft | 492 kts | 258° |
| 2026-04-30 06:25 | 50.79001 | -47.86132 | 33387 ft | 492 kts | 258° |
| 2026-04-30 06:26 | 50.77660 | -47.96764 | 33391 ft | 492 kts | 258° |
| 2026-04-30 06:26 | 50.76347 | -48.07091 | 33388 ft | 491 kts | 258° |
| 2026-04-30 06:27 | 50.74999 | -48.17616 | 33387 ft | 491 kts | 258° |
| 2026-04-30 06:27 | 50.73627 | -48.28245 | 33385 ft | 491 kts | 258° |
| 2026-04-30 06:28 | 50.72257 | -48.38786 | 33388 ft | 491 kts | 258° |
| 2026-04-30 06:28 | 50.70869 | -48.49375 | 33387 ft | 491 kts | 258° |
| 2026-04-30 06:29 | 50.69487 | -48.59845 | 33385 ft | 490 kts | 257° |
| 2026-04-30 06:29 | 50.68080 | -48.70421 | 33384 ft | 491 kts | 257° |
| 2026-04-30 06:30 | 50.66673 | -48.80928 | 33381 ft | 491 kts | 257° |
| 2026-04-30 06:30 | 50.65250 | -48.91478 | 33382 ft | 489 kts | 257° |
| 2026-04-30 06:31 | 50.63828 | -49.01940 | 33380 ft | 488 kts | 257° |
| 2026-04-30 06:31 | 50.62402 | -49.12353 | 33381 ft | 489 kts | 256° |
| 2026-04-30 06:32 | 50.60969 | -49.22747 | 33378 ft | 489 kts | 256° |
| 2026-04-30 06:32 | 50.59516 | -49.33211 | 33375 ft | 489 kts | 256° |
| 2026-04-30 06:33 | 50.58055 | -49.43658 | 33371 ft | 489 kts | 256° |
| 2026-04-30 06:33 | 50.56578 | -49.54147 | 33370 ft | 488 kts | 256° |
| 2026-04-30 06:34 | 50.55131 | -49.64354 | 33366 ft | 487 kts | 256° |
| 2026-04-30 06:34 | 50.53645 | -49.74761 | 33364 ft | 487 kts | 256° |
| 2026-04-30 06:35 | 50.52142 | -49.85223 | 33363 ft | 487 kts | 256° |
| 2026-04-30 06:35 | 50.50637 | -49.95608 | 33356 ft | 486 kts | 255° |
| 2026-04-30 06:36 | 50.48515 | -50.05703 | 33360 ft | 486 kts | 249° |
| 2026-04-30 06:36 | 50.46189 | -50.15633 | 33359 ft | 485 kts | 248° |
| 2026-04-30 06:37 | 50.43835 | -50.25520 | 33353 ft | 485 kts | 248° |
| 2026-04-30 06:37 | 50.41452 | -50.35424 | 33352 ft | 484 kts | 248° |
| 2026-04-30 06:38 | 50.39048 | -50.45338 | 33350 ft | 484 kts | 248° |
| 2026-04-30 06:38 | 50.36619 | -50.55293 | 33351 ft | 483 kts | 248° |
| 2026-04-30 06:39 | 50.34191 | -50.65192 | 33349 ft | 483 kts | 247° |
| 2026-04-30 06:39 | 50.31777 | -50.74982 | 33348 ft | 483 kts | 247° |
| 2026-04-30 06:40 | 50.29341 | -50.84821 | 33346 ft | 482 kts | 246° |
| 2026-04-30 06:40 | 50.26902 | -50.94624 | 33363 ft | 485 kts | 246° |
| 2026-04-30 06:40 | 50.25677 | -50.99529 | 33690 ft | 487 kts | 246° |
| 2026-04-30 06:41 | 50.24446 | -51.04451 | 34249 ft | 484 kts | 246° |
| 2026-04-30 06:41 | 50.22004 | -51.14183 | 34341 ft | 480 kts | 246° |
| 2026-04-30 06:42 | 50.19574 | -51.23825 | 34346 ft | 478 kts | 246° |
| 2026-04-30 06:42 | 50.17126 | -51.33492 | 34336 ft | 477 kts | 246° |
| 2026-04-30 06:43 | 50.14685 | -51.43089 | 34342 ft | 479 kts | 246° |
| 2026-04-30 06:43 | 50.12232 | -51.52696 | 34336 ft | 477 kts | 246° |
| 2026-04-30 06:44 | 50.09766 | -51.62312 | 34329 ft | 477 kts | 246° |
| 2026-04-30 06:44 | 50.07308 | -51.71856 | 34335 ft | 476 kts | 245° |
| 2026-04-30 06:45 | 50.04824 | -51.81459 | 34327 ft | 476 kts | 245° |
| 2026-04-30 06:45 | 50.02358 | -51.90956 | 34330 ft | 474 kts | 245° |
| 2026-04-30 06:46 | 49.99888 | -52.00429 | 34329 ft | 473 kts | 245° |
| 2026-04-30 06:46 | 49.97320 | -52.09843 | 34334 ft | 473 kts | 245° |
| 2026-04-30 06:47 | 49.94723 | -52.19251 | 34325 ft | 475 kts | 245° |
| 2026-04-30 06:47 | 49.92120 | -52.28654 | 34326 ft | 475 kts | 244° |
| 2026-04-30 06:48 | 49.89527 | -52.37996 | 34324 ft | 474 kts | 245° |
| 2026-04-30 06:48 | 49.86903 | -52.47415 | 34326 ft | 474 kts | 244° |
| 2026-04-30 06:49 | 49.84299 | -52.56726 | 34318 ft | 473 kts | 244° |
| 2026-04-30 06:49 | 49.81667 | -52.66100 | 34318 ft | 473 kts | 244° |
| 2026-04-30 06:50 | 49.79049 | -52.75390 | 34321 ft | 474 kts | 243° |
| 2026-04-30 06:50 | 49.76396 | -52.84768 | 34317 ft | 474 kts | 243° |
| 2026-04-30 06:51 | 49.73766 | -52.94025 | 34324 ft | 475 kts | 243° |
| 2026-04-30 06:51 | 49.71104 | -53.03362 | 34327 ft | 474 kts | 243° |
| 2026-04-30 06:52 | 49.68440 | -53.12670 | 34321 ft | 474 kts | 243° |
| 2026-04-30 06:52 | 49.65762 | -53.21986 | 34320 ft | 474 kts | 243° |
| 2026-04-30 06:53 | 49.63094 | -53.31233 | 34314 ft | 474 kts | 243° |
| 2026-04-30 06:53 | 49.60429 | -53.40438 | 34304 ft | 472 kts | 243° |
| 2026-04-30 06:54 | 49.57745 | -53.49671 | 34301 ft | 473 kts | 243° |
| 2026-04-30 06:54 | 49.55054 | -53.58890 | 34300 ft | 473 kts | 243° |
| 2026-04-30 06:55 | 49.52348 | -53.68127 | 34295 ft | 472 kts | 242° |
| 2026-04-30 06:55 | 49.49664 | -53.77255 | 34296 ft | 472 kts | 242° |
| 2026-04-30 06:56 | 49.46957 | -53.86424 | 34292 ft | 473 kts | 242° |
| 2026-04-30 06:56 | 49.44224 | -53.95647 | 34283 ft | 472 kts | 242° |
| 2026-04-30 06:57 | 49.41510 | -54.04773 | 34279 ft | 473 kts | 242° |
| 2026-04-30 06:57 | 49.38772 | -54.13947 | 34278 ft | 472 kts | 242° |
| 2026-04-30 06:58 | 49.36041 | -54.23061 | 34277 ft | 472 kts | 243° |
| 2026-04-30 06:58 | 49.33315 | -54.32123 | 34280 ft | 472 kts | 243° |
| 2026-04-30 06:59 | 49.30557 | -54.41257 | 34278 ft | 473 kts | 243° |
| 2026-04-30 06:59 | 49.27789 | -54.50391 | 34286 ft | 473 kts | 243° |
| 2026-04-30 07:00 | 49.25023 | -54.59487 | 34283 ft | 474 kts | 243° |
| 2026-04-30 07:00 | 49.22229 | -54.68637 | 34285 ft | 473 kts | 242° |
| 2026-04-30 07:01 | 49.19465 | -54.77660 | 34277 ft | 471 kts | 242° |
| 2026-04-30 07:01 | 49.16665 | -54.86766 | 34277 ft | 472 kts | 242° |
| 2026-04-30 07:02 | 49.13874 | -54.95806 | 34281 ft | 473 kts | 242° |
| 2026-04-30 07:02 | 49.11061 | -55.04887 | 34266 ft | 473 kts | 243° |
| 2026-04-30 07:03 | 49.08246 | -55.13939 | 34249 ft | 474 kts | 242° |
| 2026-04-30 07:03 | 49.05427 | -55.22972 | 34252 ft | 473 kts | 243° |
| 2026-04-30 07:04 | 49.02593 | -55.32020 | 34250 ft | 473 kts | 243° |
| 2026-04-30 07:04 | 48.99767 | -55.41010 | 34257 ft | 473 kts | 243° |
| 2026-04-30 07:05 | 48.95511 | -55.54492 | 34267 ft | 473 kts | 243° |
| 2026-04-30 07:05 | 48.92660 | -55.63479 | 34252 ft | 472 kts | 243° |
| 2026-04-30 07:06 | 48.89792 | -55.72487 | 34245 ft | 472 kts | 242° |
| 2026-04-30 07:06 | 48.86932 | -55.81440 | 34252 ft | 472 kts | 242° |
| 2026-04-30 07:07 | 48.84065 | -55.90382 | 34254 ft | 474 kts | 242° |
| 2026-04-30 07:07 | 48.81166 | -55.99390 | 34255 ft | 473 kts | 242° |
| 2026-04-30 07:08 | 48.78284 | -56.08317 | 34250 ft | 473 kts | 242° |
| 2026-04-30 07:08 | 48.75398 | -56.17224 | 34253 ft | 472 kts | 242° |
| 2026-04-30 07:09 | 48.72486 | -56.26178 | 34248 ft | 472 kts | 242° |
| 2026-04-30 07:09 | 48.69587 | -56.35062 | 34244 ft | 471 kts | 242° |
| 2026-04-30 07:10 | 48.66666 | -56.43982 | 34237 ft | 472 kts | 242° |
| 2026-04-30 07:10 | 48.63752 | -56.52849 | 34233 ft | 473 kts | 242° |
| 2026-04-30 07:11 | 48.60822 | -56.61731 | 34228 ft | 473 kts | 242° |
| 2026-04-30 07:11 | 48.57879 | -56.70625 | 34227 ft | 471 kts | 242° |
| 2026-04-30 07:12 | 48.54933 | -56.79496 | 34224 ft | 472 kts | 242° |
| 2026-04-30 07:12 | 48.52003 | -56.88289 | 34226 ft | 472 kts | 242° |
| 2026-04-30 07:13 | 48.49063 | -56.97081 | 34216 ft | 471 kts | 242° |
| 2026-04-30 07:13 | 48.46107 | -57.05891 | 34209 ft | 471 kts | 241° |
| 2026-04-30 07:14 | 48.43135 | -57.14717 | 34210 ft | 472 kts | 241° |
| 2026-04-30 07:14 | 48.40174 | -57.23479 | 34209 ft | 472 kts | 241° |
| 2026-04-30 07:15 | 48.37199 | -57.32255 | 34211 ft | 472 kts | 241° |
| 2026-04-30 07:15 | 48.34212 | -57.41037 | 34203 ft | 472 kts | 242° |
| 2026-04-30 07:16 | 48.31220 | -57.49802 | 34203 ft | 472 kts | 242° |
| 2026-04-30 07:16 | 48.28234 | -57.58519 | 34205 ft | 472 kts | 242° |
| 2026-04-30 07:17 | 48.25220 | -57.67292 | 34201 ft | 472 kts | 241° |
| 2026-04-30 07:18 | 48.20694 | -57.80406 | 34191 ft | 471 kts | 241° |
| 2026-04-30 07:18 | 48.17671 | -57.89129 | 34189 ft | 472 kts | 241° |
| 2026-04-30 07:19 | 48.14641 | -57.97841 | 34178 ft | 473 kts | 240° |
| 2026-04-30 07:19 | 48.11612 | -58.06525 | 34187 ft | 473 kts | 240° |
| 2026-04-30 07:20 | 48.08545 | -58.15284 | 34179 ft | 472 kts | 240° |
| 2026-04-30 07:20 | 48.05515 | -58.23911 | 34184 ft | 472 kts | 241° |
| 2026-04-30 07:21 | 48.02451 | -58.32606 | 34186 ft | 471 kts | 241° |
| 2026-04-30 07:21 | 47.99394 | -58.41251 | 34184 ft | 472 kts | 241° |
| 2026-04-30 07:22 | 47.94797 | -58.54198 | 34177 ft | 471 kts | 240° |
| 2026-04-30 07:22 | 47.91713 | -58.62849 | 34185 ft | 471 kts | 241° |
| 2026-04-30 07:23 | 47.88648 | -58.71420 | 34190 ft | 470 kts | 240° |
| 2026-04-30 07:23 | 47.85559 | -58.80028 | 34186 ft | 470 kts | 240° |
| 2026-04-30 07:24 | 47.82456 | -58.88646 | 34180 ft | 470 kts | 240° |
| 2026-04-30 07:24 | 47.79370 | -58.97190 | 34185 ft | 470 kts | 240° |
| 2026-04-30 07:25 | 47.76262 | -59.05766 | 34184 ft | 470 kts | 240° |
| 2026-04-30 07:25 | 47.73137 | -59.14362 | 34184 ft | 470 kts | 240° |
| 2026-04-30 07:26 | 47.70032 | -59.22876 | 34185 ft | 469 kts | 240° |
| 2026-04-30 07:26 | 47.66912 | -59.31402 | 34195 ft | 469 kts | 239° |
| 2026-04-30 07:27 | 47.63784 | -59.39923 | 34205 ft | 469 kts | 239° |
| 2026-04-30 07:27 | 47.60674 | -59.48369 | 34215 ft | 469 kts | 239° |
| 2026-04-30 07:28 | 47.57550 | -59.56825 | 34212 ft | 468 kts | 239° |
| 2026-04-30 07:28 | 47.54401 | -59.65321 | 34207 ft | 468 kts | 239° |
| 2026-04-30 07:29 | 47.51272 | -59.73736 | 34207 ft | 468 kts | 239° |
| 2026-04-30 07:29 | 47.48137 | -59.82141 | 34204 ft | 468 kts | 239° |
| 2026-04-30 07:30 | 47.43394 | -59.94808 | 34198 ft | 468 kts | 238° |
| 2026-04-30 07:31 | 47.40241 | -60.03194 | 34194 ft | 468 kts | 238° |
| 2026-04-30 07:31 | 47.37072 | -60.11597 | 34196 ft | 467 kts | 238° |
| 2026-04-30 07:32 | 47.33895 | -60.19997 | 34192 ft | 466 kts | 238° |
| 2026-04-30 07:32 | 47.30719 | -60.28365 | 34194 ft | 467 kts | 238° |
| 2026-04-30 07:33 | 47.27539 | -60.36718 | 34194 ft | 466 kts | 238° |
| 2026-04-30 07:33 | 47.24361 | -60.45040 | 34187 ft | 465 kts | 238° |
| 2026-04-30 07:34 | 47.21192 | -60.53315 | 34189 ft | 465 kts | 238° |
| 2026-04-30 07:34 | 47.17996 | -60.61634 | 34190 ft | 466 kts | 238° |
| 2026-04-30 07:35 | 47.14814 | -60.69889 | 34182 ft | 465 kts | 237° |
| 2026-04-30 07:35 | 47.11625 | -60.78138 | 34182 ft | 465 kts | 237° |
| 2026-04-30 07:36 | 47.08429 | -60.86382 | 34179 ft | 465 kts | 237° |
| 2026-04-30 07:36 | 47.05215 | -60.94644 | 34173 ft | 464 kts | 237° |
| 2026-04-30 07:37 | 47.01997 | -61.02891 | 34182 ft | 466 kts | 237° |
| 2026-04-30 07:37 | 46.98790 | -61.11087 | 34178 ft | 464 kts | 237° |
| 2026-04-30 07:38 | 46.95594 | -61.19230 | 34180 ft | 463 kts | 237° |
| 2026-04-30 07:38 | 46.92379 | -61.27396 | 34170 ft | 464 kts | 237° |
| 2026-04-30 07:39 | 46.89144 | -61.35588 | 34173 ft | 463 kts | 237° |
| 2026-04-30 07:39 | 46.85925 | -61.43718 | 34176 ft | 464 kts | 237° |
| 2026-04-30 07:40 | 46.82676 | -61.51897 | 34168 ft | 464 kts | 237° |
| 2026-04-30 07:40 | 46.79439 | -61.60020 | 34173 ft | 463 kts | 237° |
| 2026-04-30 07:41 | 46.76174 | -61.68190 | 34160 ft | 465 kts | 236° |
| 2026-04-30 07:41 | 46.72933 | -61.76277 | 34172 ft | 464 kts | 236° |
| 2026-04-30 07:42 | 46.69654 | -61.84434 | 34158 ft | 463 kts | 236° |
| 2026-04-30 07:42 | 46.66387 | -61.92534 | 34173 ft | 465 kts | 236° |
| 2026-04-30 07:43 | 46.63118 | -62.00619 | 34152 ft | 464 kts | 236° |
| 2026-04-30 07:43 | 46.59829 | -62.08728 | 34147 ft | 466 kts | 236° |
| 2026-04-30 07:44 | 46.56519 | -62.16864 | 34150 ft | 465 kts | 236° |
| 2026-04-30 07:44 | 46.53223 | -62.24942 | 34146 ft | 466 kts | 236° |
| 2026-04-30 07:45 | 46.49898 | -62.33067 | 34138 ft | 466 kts | 236° |
| 2026-04-30 07:45 | 46.46592 | -62.41124 | 34139 ft | 466 kts | 237° |
| 2026-04-30 07:46 | 46.43267 | -62.49201 | 34131 ft | 465 kts | 237° |
| 2026-04-30 07:46 | 46.39934 | -62.57275 | 34131 ft | 466 kts | 237° |
| 2026-04-30 07:47 | 46.36587 | -62.65359 | 34117 ft | 466 kts | 236° |
| 2026-04-30 07:47 | 46.33237 | -62.73426 | 34119 ft | 467 kts | 236° |
| 2026-04-30 07:48 | 46.29885 | -62.81475 | 34121 ft | 468 kts | 236° |
| 2026-04-30 07:48 | 46.26524 | -62.89523 | 34121 ft | 468 kts | 236° |
| 2026-04-30 07:49 | 46.23152 | -62.97572 | 34117 ft | 468 kts | 236° |
| 2026-04-30 07:49 | 46.19791 | -63.05573 | 34115 ft | 468 kts | 236° |
| 2026-04-30 07:50 | 46.16412 | -63.13593 | 34112 ft | 467 kts | 237° |
| 2026-04-30 07:50 | 46.13021 | -63.21617 | 34110 ft | 469 kts | 237° |
| 2026-04-30 07:51 | 46.09629 | -63.29622 | 34106 ft | 469 kts | 237° |
| 2026-04-30 07:51 | 46.06224 | -63.37634 | 34103 ft | 470 kts | 237° |
| 2026-04-30 07:52 | 46.02810 | -63.45647 | 34099 ft | 471 kts | 237° |
| 2026-04-30 07:52 | 45.99365 | -63.53707 | 34098 ft | 470 kts | 237° |
| 2026-04-30 07:53 | 45.95931 | -63.61717 | 34093 ft | 470 kts | 237° |
| 2026-04-30 07:53 | 45.92489 | -63.69723 | 34092 ft | 470 kts | 237° |
| 2026-04-30 07:54 | 45.89046 | -63.77708 | 34092 ft | 471 kts | 237° |
| 2026-04-30 07:54 | 45.85593 | -63.85695 | 34089 ft | 472 kts | 237° |
| 2026-04-30 07:55 | 45.82143 | -63.93653 | 34085 ft | 472 kts | 237° |
| 2026-04-30 07:55 | 45.78674 | -64.01632 | 34076 ft | 472 kts | 237° |
| 2026-04-30 07:56 | 45.75209 | -64.09578 | 34083 ft | 470 kts | 237° |
| 2026-04-30 07:56 | 45.71731 | -64.17530 | 34079 ft | 469 kts | 238° |
| 2026-04-30 07:57 | 45.68277 | -64.25408 | 34083 ft | 470 kts | 238° |
| 2026-04-30 07:57 | 45.64795 | -64.33324 | 34074 ft | 468 kts | 238° |
| 2026-04-30 07:58 | 45.61335 | -64.41170 | 34075 ft | 468 kts | 238° |
| 2026-04-30 07:58 | 45.57860 | -64.49027 | 34069 ft | 468 kts | 238° |
| 2026-04-30 07:59 | 45.54378 | -64.56880 | 34062 ft | 468 kts | 238° |
| 2026-04-30 07:59 | 45.50890 | -64.64725 | 34063 ft | 468 kts | 239° |
| 2026-04-30 08:00 | 45.45657 | -64.76450 | 34055 ft | 467 kts | 238° |
| 2026-04-30 08:00 | 45.42153 | -64.84274 | 34065 ft | 467 kts | 238° |
| 2026-04-30 08:01 | 45.38686 | -64.91995 | 34072 ft | 467 kts | 239° |
| 2026-04-30 08:01 | 45.35182 | -64.99779 | 34054 ft | 465 kts | 239° |
| 2026-04-30 08:02 | 45.29909 | -65.11450 | 34054 ft | 466 kts | 239° |
| 2026-04-30 08:03 | 45.22924 | -65.26839 | 34071 ft | 468 kts | 239° |
| 2026-04-30 08:04 | 45.19389 | -65.34594 | 34065 ft | 467 kts | 239° |
| 2026-04-30 08:04 | 45.15854 | -65.42328 | 34061 ft | 467 kts | 239° |
| 2026-04-30 08:05 | 45.12321 | -65.50037 | 34058 ft | 467 kts | 239° |
| 2026-04-30 08:05 | 45.08784 | -65.57733 | 34046 ft | 466 kts | 239° |
| 2026-04-30 08:06 | 45.05253 | -65.65398 | 34048 ft | 468 kts | 238° |
| 2026-04-30 08:06 | 45.01689 | -65.73110 | 34049 ft | 468 kts | 238° |
| 2026-04-30 08:07 | 44.98132 | -65.80788 | 34058 ft | 466 kts | 238° |
| 2026-04-30 08:07 | 44.94564 | -65.88470 | 34054 ft | 468 kts | 238° |
| 2026-04-30 08:08 | 44.91009 | -65.96103 | 34049 ft | 467 kts | 238° |
| 2026-04-30 08:08 | 44.87509 | -66.03597 | 34044 ft | 466 kts | 238° |
| 2026-04-30 08:09 | 44.83937 | -66.11227 | 34041 ft | 467 kts | 238° |
| 2026-04-30 08:09 | 44.80342 | -66.18883 | 34037 ft | 468 kts | 238° |
| 2026-04-30 08:10 | 44.76752 | -66.26509 | 34031 ft | 465 kts | 238° |
| 2026-04-30 08:10 | 44.73179 | -66.34082 | 34029 ft | 466 kts | 238° |
| 2026-04-30 08:11 | 44.69603 | -66.41639 | 34025 ft | 466 kts | 238° |
| 2026-04-30 08:11 | 44.66018 | -66.49193 | 34027 ft | 464 kts | 237° |
| 2026-04-30 08:12 | 44.62443 | -66.56708 | 34023 ft | 464 kts | 237° |
| 2026-04-30 08:12 | 44.58885 | -66.64168 | 34011 ft | 466 kts | 237° |
| 2026-04-30 08:13 | 44.55270 | -66.71727 | 34018 ft | 467 kts | 237° |
| 2026-04-30 08:13 | 44.51660 | -66.79259 | 34008 ft | 465 kts | 237° |
| 2026-04-30 08:14 | 44.48047 | -66.86774 | 34007 ft | 466 kts | 237° |
| 2026-04-30 08:14 | 44.44423 | -66.94295 | 33995 ft | 464 kts | 237° |
| 2026-04-30 08:15 | 44.40490 | -67.01436 | 33986 ft | 464 kts | 230° |
| 2026-04-30 08:15 | 44.36178 | -67.08223 | 33982 ft | 465 kts | 229° |
| 2026-04-30 08:16 | 44.31888 | -67.14874 | 33975 ft | 464 kts | 229° |
| 2026-04-30 08:16 | 44.27542 | -67.21554 | 33979 ft | 463 kts | 229° |
| 2026-04-30 08:17 | 44.23189 | -67.28204 | 33970 ft | 463 kts | 229° |
| 2026-04-30 08:17 | 44.18842 | -67.34817 | 33977 ft | 462 kts | 229° |
| 2026-04-30 08:18 | 44.14506 | -67.41393 | 33967 ft | 462 kts | 229° |
| 2026-04-30 08:18 | 44.10133 | -67.48004 | 33965 ft | 461 kts | 229° |
| 2026-04-30 08:19 | 44.05798 | -67.54542 | 33958 ft | 462 kts | 229° |
| 2026-04-30 08:19 | 44.01419 | -67.61129 | 33957 ft | 461 kts | 229° |
| 2026-04-30 08:20 | 43.97076 | -67.67647 | 33957 ft | 460 kts | 228° |
| 2026-04-30 08:20 | 43.92718 | -67.74173 | 33953 ft | 459 kts | 228° |
| 2026-04-30 08:21 | 43.88432 | -67.80576 | 33952 ft | 459 kts | 228° |
| 2026-04-30 08:21 | 43.84096 | -67.87038 | 33943 ft | 459 kts | 227° |
| 2026-04-30 08:22 | 43.79745 | -67.93507 | 33941 ft | 460 kts | 227° |
| 2026-04-30 08:22 | 43.75386 | -67.99975 | 33943 ft | 458 kts | 227° |
| 2026-04-30 08:23 | 43.71019 | -68.06438 | 33937 ft | 458 kts | 227° |
| 2026-04-30 08:23 | 43.66663 | -68.12872 | 33934 ft | 458 kts | 227° |
| 2026-04-30 08:24 | 43.62313 | -68.19280 | 33930 ft | 458 kts | 227° |
| 2026-04-30 08:24 | 43.57943 | -68.25705 | 33924 ft | 456 kts | 227° |
| 2026-04-30 08:25 | 43.53521 | -68.32192 | 33919 ft | 468 kts | 227° |
| 2026-04-30 08:25 | 43.49056 | -68.38725 | 33920 ft | 467 kts | 227° |
| 2026-04-30 08:26 | 43.44572 | -68.45273 | 33913 ft | 466 kts | 227° |
| 2026-04-30 08:26 | 43.40121 | -68.51756 | 33908 ft | 467 kts | 227° |
| 2026-04-30 08:27 | 43.35656 | -68.58244 | 33901 ft | 466 kts | 227° |
| 2026-04-30 08:27 | 43.31152 | -68.64774 | 33896 ft | 466 kts | 227° |
| 2026-04-30 08:28 | 43.26717 | -68.71191 | 33900 ft | 466 kts | 226° |
| 2026-04-30 08:28 | 43.22236 | -68.77658 | 33894 ft | 464 kts | 226° |
| 2026-04-30 08:29 | 43.17762 | -68.84100 | 33892 ft | 465 kts | 226° |
| 2026-04-30 08:29 | 43.13276 | -68.90547 | 33882 ft | 465 kts | 226° |
| 2026-04-30 08:30 | 43.08794 | -68.96972 | 33884 ft | 465 kts | 226° |
| 2026-04-30 08:30 | 43.04323 | -69.03366 | 33868 ft | 466 kts | 226° |
| 2026-04-30 08:31 | 42.99846 | -69.09755 | 33861 ft | 466 kts | 226° |
| 2026-04-30 08:31 | 42.95338 | -69.16174 | 33863 ft | 466 kts | 225° |
| 2026-04-30 08:32 | 42.90857 | -69.22540 | 33852 ft | 465 kts | 225° |
| 2026-04-30 08:32 | 42.86344 | -69.28936 | 33869 ft | 466 kts | 225° |
| 2026-04-30 08:33 | 42.81841 | -69.35305 | 33861 ft | 465 kts | 225° |
| 2026-04-30 08:33 | 42.77343 | -69.41653 | 33865 ft | 465 kts | 225° |
| 2026-04-30 08:34 | 42.72847 | -69.47984 | 33866 ft | 465 kts | 225° |
| 2026-04-30 08:34 | 42.68325 | -69.54336 | 33856 ft | 466 kts | 225° |
| 2026-04-30 08:35 | 42.63834 | -69.60631 | 33861 ft | 465 kts | 225° |
| 2026-04-30 08:35 | 42.59323 | -69.66939 | 33867 ft | 467 kts | 224° |
| 2026-04-30 08:36 | 42.54772 | -69.73290 | 33863 ft | 465 kts | 224° |
| 2026-04-30 08:36 | 42.50239 | -69.79603 | 33861 ft | 466 kts | 225° |
| 2026-04-30 08:37 | 42.45732 | -69.85864 | 33866 ft | 467 kts | 224° |
| 2026-04-30 08:37 | 42.41182 | -69.92172 | 33865 ft | 466 kts | 225° |
| 2026-04-30 08:38 | 42.36644 | -69.98449 | 33860 ft | 467 kts | 225° |
| 2026-04-30 08:38 | 42.32070 | -70.04761 | 33849 ft | 467 kts | 225° |
| 2026-04-30 08:39 | 42.27564 | -70.10967 | 33849 ft | 465 kts | 225° |
| 2026-04-30 08:39 | 42.23017 | -70.17217 | 33861 ft | 462 kts | 225° |
| 2026-04-30 08:40 | 42.18530 | -70.23369 | 33849 ft | 462 kts | 225° |
| 2026-04-30 08:40 | 42.14015 | -70.29545 | 33846 ft | 463 kts | 225° |
| 2026-04-30 08:41 | 42.09515 | -70.35689 | 33849 ft | 462 kts | 225° |
| 2026-04-30 08:41 | 42.05086 | -70.42052 | 33846 ft | 462 kts | 232° |
| 2026-04-30 08:42 | 42.02044 | -70.49671 | 33859 ft | 467 kts | 246° |
| 2026-04-30 08:42 | 41.99577 | -70.57735 | 33860 ft | 464 kts | 246° |
| 2026-04-30 08:43 | 41.97095 | -70.65743 | 33858 ft | 464 kts | 245° |
| 2026-04-30 08:43 | 41.94606 | -70.73689 | 33865 ft | 461 kts | 245° |
| 2026-04-30 08:44 | 41.92110 | -70.81604 | 33862 ft | 459 kts | 245° |
| 2026-04-30 08:44 | 41.89623 | -70.89452 | 33864 ft | 459 kts | 245° |
| 2026-04-30 08:45 | 41.87123 | -70.97305 | 33871 ft | 457 kts | 245° |
| 2026-04-30 08:45 | 41.84590 | -71.05236 | 33873 ft | 458 kts | 245° |
| 2026-04-30 08:46 | 41.82092 | -71.13034 | 33865 ft | 458 kts | 245° |
| 2026-04-30 08:46 | 41.79567 | -71.20891 | 33866 ft | 458 kts | 245° |
| 2026-04-30 08:47 | 41.77065 | -71.28657 | 33866 ft | 456 kts | 245° |
| 2026-04-30 08:47 | 41.74526 | -71.36510 | 33861 ft | 456 kts | 245° |
| 2026-04-30 08:48 | 41.71274 | -71.43652 | 33855 ft | 453 kts | 229° |
| 2026-04-30 08:48 | 41.66622 | -71.49395 | 33853 ft | 451 kts | 221° |
| 2026-04-30 08:49 | 41.61816 | -71.54795 | 33852 ft | 453 kts | 221° |
| 2026-04-30 08:49 | 41.56963 | -71.60218 | 33857 ft | 451 kts | 221° |
| 2026-04-30 08:50 | 41.52179 | -71.65544 | 33852 ft | 452 kts | 221° |
| 2026-04-30 08:50 | 41.47306 | -71.70954 | 33819 ft | 448 kts | 220° |
| 2026-04-30 08:50 | 41.44941 | -71.73576 | 33283 ft | 444 kts | 220° |
| 2026-04-30 08:51 | 41.42547 | -71.76227 | 32225 ft | 451 kts | 220° |
| 2026-04-30 08:51 | 41.40156 | -71.78870 | 31317 ft | 455 kts | 220° |
| 2026-04-30 08:51 | 41.37676 | -71.81612 | 30488 ft | 455 kts | 220° |
| 2026-04-30 08:51 | 41.35226 | -71.84314 | 29961 ft | 448 kts | 219° |
| 2026-04-30 08:52 | 41.32846 | -71.86938 | 29466 ft | 442 kts | 220° |
| 2026-04-30 08:52 | 41.30485 | -71.89537 | 28928 ft | 436 kts | 220° |
| 2026-04-30 08:52 | 41.28151 | -71.92104 | 28385 ft | 431 kts | 220° |
| 2026-04-30 08:52 | 41.25866 | -71.94615 | 27853 ft | 426 kts | 220° |
| 2026-04-30 08:53 | 41.23580 | -71.97125 | 27299 ft | 421 kts | 220° |
| 2026-04-30 08:53 | 41.21329 | -71.99594 | 26766 ft | 416 kts | 220° |
| 2026-04-30 08:53 | 41.19100 | -72.02038 | 26223 ft | 412 kts | 221° |
| 2026-04-30 08:53 | 41.16920 | -72.04424 | 25699 ft | 407 kts | 221° |
| 2026-04-30 08:54 | 41.14745 | -72.06803 | 25164 ft | 403 kts | 221° |
| 2026-04-30 08:54 | 41.12574 | -72.09227 | 24638 ft | 397 kts | 225° |
| 2026-04-30 08:54 | 41.10745 | -72.11958 | 24126 ft | 391 kts | 236° |
| 2026-04-30 08:54 | 41.09375 | -72.15029 | 23613 ft | 387 kts | 245° |
| 2026-04-30 08:55 | 41.08418 | -72.18353 | 23110 ft | 383 kts | 251° |
| 2026-04-30 08:55 | 41.07570 | -72.21706 | 22587 ft | 380 kts | 251° |
| 2026-04-30 08:55 | 41.06735 | -72.25040 | 22069 ft | 377 kts | 251° |
| 2026-04-30 08:55 | 41.05919 | -72.28304 | 21566 ft | 374 kts | 252° |
| 2026-04-30 08:56 | 41.05102 | -72.31578 | 21053 ft | 372 kts | 252° |
| 2026-04-30 08:56 | 41.04294 | -72.34813 | 20541 ft | 369 kts | 252° |
| 2026-04-30 08:56 | 41.03498 | -72.37998 | 20036 ft | 366 kts | 252° |
| 2026-04-30 08:56 | 41.02689 | -72.41239 | 19526 ft | 363 kts | 252° |
| 2026-04-30 08:57 | 41.01904 | -72.44381 | 19024 ft | 361 kts | 252° |
| 2026-04-30 08:57 | 41.01145 | -72.47412 | 18539 ft | 358 kts | 252° |
| 2026-04-30 08:57 | 41.00365 | -72.50523 | 18049 ft | 355 kts | 252° |
| 2026-04-30 08:57 | 40.99589 | -72.53619 | 17571 ft | 352 kts | 252° |
| 2026-04-30 08:58 | 40.98816 | -72.56698 | 17099 ft | 349 kts | 252° |
| 2026-04-30 08:58 | 40.98051 | -72.59743 | 16624 ft | 347 kts | 252° |
| 2026-04-30 08:58 | 40.97288 | -72.62773 | 16128 ft | 345 kts | 252° |
| 2026-04-30 08:58 | 40.96535 | -72.65761 | 15634 ft | 343 kts | 251° |
| 2026-04-30 08:59 | 40.95778 | -72.68761 | 15136 ft | 341 kts | 251° |
| 2026-04-30 08:59 | 40.95025 | -72.71742 | 14658 ft | 340 kts | 251° |
| 2026-04-30 08:59 | 40.94273 | -72.74712 | 14171 ft | 338 kts | 251° |
| 2026-04-30 08:59 | 40.93510 | -72.77722 | 13680 ft | 349 kts | 251° |
| 2026-04-30 09:00 | 40.92740 | -72.80752 | 13167 ft | 350 kts | 250° |
| 2026-04-30 09:00 | 40.91923 | -72.83790 | 12641 ft | 349 kts | 249° |
| 2026-04-30 09:00 | 40.91098 | -72.86807 | 12132 ft | 347 kts | 249° |
| 2026-04-30 09:00 | 40.90280 | -72.89804 | 11624 ft | 345 kts | 249° |
| 2026-04-30 09:01 | 40.89468 | -72.92783 | 11130 ft | 343 kts | 250° |
| 2026-04-30 09:01 | 40.88668 | -72.95723 | 10753 ft | 337 kts | 250° |
| 2026-04-30 09:01 | 40.87902 | -72.98537 | 10602 ft | 314 kts | 250° |
| 2026-04-30 09:01 | 40.87190 | -73.01150 | 10567 ft | 292 kts | 249° |
| 2026-04-30 09:02 | 40.85870 | -73.05988 | 10336 ft | 269 kts | 249° |
| 2026-04-30 09:02 | 40.85245 | -73.08273 | 10200 ft | 259 kts | 249° |
| 2026-04-30 09:02 | 40.84641 | -73.10481 | 10077 ft | 249 kts | 249° |
| 2026-04-30 09:03 | 40.84056 | -73.12616 | 9845 ft | 246 kts | 249° |
| 2026-04-30 09:03 | 40.83453 | -73.14816 | 9459 ft | 257 kts | 249° |
| 2026-04-30 09:03 | 40.82851 | -73.17011 | 9079 ft | 258 kts | 249° |
| 2026-04-30 09:03 | 40.82230 | -73.19273 | 8715 ft | 258 kts | 248° |
| 2026-04-30 09:04 | 40.81624 | -73.21479 | 8370 ft | 257 kts | 248° |
| 2026-04-30 09:04 | 40.81007 | -73.23724 | 8027 ft | 256 kts | 248° |
| 2026-04-30 09:04 | 40.80399 | -73.25931 | 7685 ft | 255 kts | 248° |
| 2026-04-30 09:04 | 40.79795 | -73.28127 | 7338 ft | 254 kts | 248° |
| 2026-04-30 09:05 | 40.79276 | -73.30363 | 6979 ft | 255 kts | 260° |
| 2026-04-30 09:05 | 40.79203 | -73.32696 | 6654 ft | 256 kts | 267° |
| 2026-04-30 09:05 | 40.79249 | -73.35062 | 6314 ft | 255 kts | 268° |
| 2026-04-30 09:05 | 40.79297 | -73.37382 | 5981 ft | 255 kts | 267° |
| 2026-04-30 09:06 | 40.79340 | -73.39751 | 5647 ft | 254 kts | 268° |
| 2026-04-30 09:06 | 40.79380 | -73.42092 | 5317 ft | 253 kts | 268° |
| 2026-04-30 09:06 | 40.79419 | -73.44415 | 4992 ft | 252 kts | 268° |
| 2026-04-30 09:06 | 40.79458 | -73.46755 | 4667 ft | 251 kts | 268° |
| 2026-04-30 09:07 | 40.79495 | -73.49036 | 4355 ft | 250 kts | 268° |
| 2026-04-30 09:07 | 40.79532 | -73.51334 | 4035 ft | 250 kts | 268° |
| 2026-04-30 09:07 | 40.79568 | -73.53613 | 3740 ft | 248 kts | 268° |
| 2026-04-30 09:07 | 40.79605 | -73.55854 | 3654 ft | 234 kts | 268° |
| 2026-04-30 09:08 | 40.79637 | -73.57859 | 3591 ft | 223 kts | 267° |
| 2026-04-30 09:08 | 40.79667 | -73.59917 | 3501 ft | 222 kts | 267° |
| 2026-04-30 09:08 | 40.79658 | -73.61938 | 3385 ft | 220 kts | 258° |
| 2026-04-30 09:08 | 40.79106 | -73.63802 | 3275 ft | 218 kts | 233° |
| 2026-04-30 09:09 | 40.77968 | -73.65102 | 2980 ft | 218 kts | 210° |
| 2026-04-30 09:09 | 40.76643 | -73.66077 | 2670 ft | 216 kts | 208° |
| 2026-04-30 09:09 | 40.75332 | -73.67062 | 2369 ft | 214 kts | 209° |
| 2026-04-30 09:09 | 40.74047 | -73.68066 | 2082 ft | 212 kts | 209° |
| 2026-04-30 09:10 | 40.72788 | -73.69051 | 1922 ft | 203 kts | 208° |
| 2026-04-30 09:10 | 40.71602 | -73.69974 | 1673 ft | 188 kts | 208° |
| 2026-04-30 09:10 | 40.70513 | -73.70821 | 1433 ft | 175 kts | 208° |
| 2026-04-30 09:10 | 40.69492 | -73.71617 | 1213 ft | 163 kts | 208° |
| 2026-04-30 09:11 | 40.68533 | -73.72365 | 998 ft | 157 kts | 209° |
| 2026-04-30 09:11 | 40.67586 | -73.73105 | 778 ft | 157 kts | 209° |
| 2026-04-30 09:11 | 40.66638 | -73.73830 | 556 ft | 156 kts | 208° |
| 2026-04-30 09:11 | 40.65698 | -73.74563 | 316 ft | 155 kts | 210° |
| 2026-04-30 09:12 | 40.64777 | -73.75291 | 128 ft | 151 kts | 209° |
| 2026-04-30 09:12 | 40.63882 | -73.75986 | 22 ft | 137 kts | 210° |
| 2026-04-30 09:12 | 40.63318 | -73.76426 | 21 ft | 45 kts | 211° |
| 2026-04-30 09:12 | 40.63084 | -73.76618 | 18 ft | 37 kts | 216° |
| 2026-04-30 09:13 | 40.62941 | -73.76873 | 18 ft | 32 kts | 245° |
| 2026-04-30 09:13 | 40.63000 | -73.77125 | 18 ft | 29 kts | 301° |
| 2026-04-30 09:13 | 40.63100 | -73.77344 | 18 ft | 26 kts | 301° |
| 2026-04-30 09:13 | 40.63192 | -73.77547 | 18 ft | 24 kts | 300° |
| 2026-04-30 09:14 | 40.63277 | -73.77734 | 18 ft | 22 kts | 301° |
| 2026-04-30 09:14 | 40.63354 | -73.77906 | 18 ft | 20 kts | 300° |
| 2026-04-30 09:14 | 40.63422 | -73.78065 | 18 ft | 18 kts | 300° |
| 2026-04-30 09:14 | 40.63489 | -73.78217 | 18 ft | 20 kts | 301° |
| 2026-04-30 09:15 | 40.63567 | -73.78387 | 18 ft | 23 kts | 301° |
| 2026-04-30 09:15 | 40.63653 | -73.78578 | 18 ft | 23 kts | 301° |
| 2026-04-30 09:15 | 40.63734 | -73.78754 | 19 ft | 20 kts | 301° |
| 2026-04-30 09:15 | 40.63804 | -73.78908 | 21 ft | 18 kts | 301° |
| 2026-04-30 09:16 | 40.63867 | -73.79047 | 21 ft | 16 kts | 300° |
| 2026-04-30 09:16 | 40.63926 | -73.79179 | 20 ft | 15 kts | 300° |
| 2026-04-30 09:16 | 40.63995 | -73.79234 | 21 ft | 11 kts | 39° |
| 2026-04-30 09:16 | 40.64054 | -73.79163 | 21 ft | 10 kts | 43° |
| 2026-04-30 09:17 | 40.64106 | -73.79098 | 21 ft | 3 kts | 45° |
| 2026-04-30 09:17 | 40.64121 | -73.79089 | 21 ft | 3 kts | 356° |
| 2026-04-30 09:17 | 40.64149 | -73.79124 | 21 ft | 6 kts | 308° |
| 2026-04-30 09:17 | 40.64164 | -73.79149 | 21 ft | 0 kts | 307° |
| 2026-04-30 09:18 | 40.64165 | -73.79150 | 21 ft | 0 kts | 307° |